Terminal Aerodrome Forecast
Issued by NWS Riverton, WY

Home | Current Version | Previous Version | Text Only | Print | Product List | Glossary On
Versions: 1 2 3 4 5 6 7 8 9 10 11 12 13 14 15 16 17
406
FTUS45 KRIW 161127
TAFRIW
TAF
KRIW 161127Z 1612/1712 29005KT 5SM BR SCT002
      TEMPO 1612/1616 1SM BR SCT002
     FM161600 VRB03KT P6SM VCFG FEW003
     FM161900 VRB03KT P6SM SKC
     FM170600 VRB05KT P6SM VCFG FEW005=

USA.gov is the U.S. government's official web portal to all federal, state and local government web resources and services.